createdAt,value
2022-10-16T00:01:39.244Z,101020.25
2022-10-16T00:04:06.304Z,100991.38
2022-10-16T00:06:33.231Z,101024.16
2022-10-16T00:09:00.434Z,101018.88
2022-10-16T00:11:30.579Z,100974.72
2022-10-16T00:14:00.074Z,101012.84
2022-10-16T00:16:28.163Z,101013.47
2022-10-16T00:18:55.704Z,101011.63
2022-10-16T00:21:25.090Z,101020.16
2022-10-16T00:23:57.820Z,101016.88
2022-10-16T00:26:24.633Z,101018.22
2022-10-16T00:28:52.867Z,101014.63
2022-10-16T00:31:22.066Z,101014.78
2022-10-16T00:33:49.427Z,101016.84
2022-10-16T00:36:19.084Z,100992.22
2022-10-16T00:38:48.581Z,101005.09
2022-10-16T00:41:18.486Z,101023.63
2022-10-16T00:43:46.400Z,100992.88
2022-10-16T00:46:27.773Z,101016.94
2022-10-16T00:49:02.012Z,101018.63
2022-10-16T00:51:35.025Z,101008.31
2022-10-16T00:54:05.286Z,101018.97
2022-10-16T00:56:34.940Z,101017.47
2022-10-16T00:59:06.517Z,100996.84
2022-10-16T01:01:33.759Z,101030.69
2022-10-16T01:04:00.483Z,101003.16
2022-10-16T01:07:07.213Z,101013.84
2022-10-16T01:09:54.493Z,101019.41
2022-10-16T01:12:27.462Z,101008.28
2022-10-16T01:15:10.169Z,100985.78
2022-10-16T01:17:52.601Z,101007.09
2022-10-16T01:20:39.008Z,101020.84
2022-10-16T01:23:25.461Z,101015.53
2022-10-16T01:26:04.348Z,101034.44
2022-10-16T01:28:42.989Z,101008.69
2022-10-16T01:31:14.880Z,101006.09
2022-10-16T01:33:46.676Z,101014.72
2022-10-16T01:36:18.715Z,101011.28
2022-10-16T01:38:50.926Z,101004.09
2022-10-16T01:41:26.001Z,100983.81
2022-10-16T01:44:04.555Z,100987.88
2022-10-16T01:46:32.323Z,101027.88
2022-10-16T01:49:01.932Z,101034.22
2022-10-16T01:51:30.665Z,101004.91
2022-10-16T01:54:02.452Z,101004.78
2022-10-16T01:56:30.695Z,101009.94
2022-10-16T01:59:02.966Z,100989.66
2022-10-16T02:01:32.852Z,101023.94
2022-10-16T02:04:08.811Z,100997.50
2022-10-16T02:06:38.155Z,101008.47
2022-10-16T02:09:04.784Z,101003.19
2022-10-16T02:11:31.696Z,101025.31
2022-10-16T02:14:07.342Z,101027.38
2022-10-16T02:16:52.465Z,101002.44
2022-10-16T02:19:23.322Z,101000.56
2022-10-16T02:22:11.221Z,101026.81
2022-10-16T02:24:52.806Z,101023.69
2022-10-16T02:27:23.595Z,100994.16
2022-10-16T02:29:59.997Z,101005.09
2022-10-16T02:32:34.063Z,101036.84
2022-10-16T02:35:02.189Z,101020.91
2022-10-16T02:37:30.598Z,101000.78
2022-10-16T02:39:59.453Z,101034.22
2022-10-16T02:42:35.286Z,101046.16
2022-10-16T02:45:01.890Z,101047.22
2022-10-16T02:47:28.632Z,101028.84
2022-10-16T02:49:55.368Z,101024.06
2022-10-16T02:52:24.821Z,101015.69
2022-10-16T02:54:52.017Z,101029.53
2022-10-16T02:57:19.243Z,101030.53
2022-10-16T02:59:46.400Z,101028.00
2022-10-16T03:02:13.013Z,101028.31
2022-10-16T03:04:39.975Z,101020.56
2022-10-16T03:07:07.021Z,101029.47
2022-10-16T03:09:33.885Z,101028.94
2022-10-16T03:12:00.573Z,101035.94
2022-10-16T03:16:58.678Z,101033.22
2022-10-16T03:19:25.563Z,101032.22
2022-10-16T03:21:52.439Z,101030.09
2022-10-16T03:24:19.082Z,101040.72
2022-10-16T03:26:45.853Z,101035.66
2022-10-16T03:29:12.428Z,101061.63
2022-10-16T03:31:41.566Z,101043.41
2022-10-16T03:34:10.721Z,101068.47
2022-10-16T03:36:37.464Z,101046.34
2022-10-16T03:39:06.853Z,101064.03
2022-10-16T03:41:33.442Z,101050.50
2022-10-16T03:44:02.303Z,101044.50
2022-10-16T03:46:28.874Z,101044.66
2022-10-16T03:48:55.458Z,101059.19
2022-10-16T03:51:22.177Z,101055.03
2022-10-16T03:53:48.770Z,101064.97
2022-10-16T03:56:15.314Z,101052.84
2022-10-16T03:58:44.423Z,101045.84
2022-10-16T04:01:15.921Z,101076.78
2022-10-16T04:03:42.690Z,101032.78
2022-10-16T04:06:10.003Z,101079.66
2022-10-16T04:08:37.679Z,101077.81
2022-10-16T04:11:04.812Z,101057.16
2022-10-16T04:13:31.827Z,101050.63
2022-10-16T04:15:58.473Z,101088.19
2022-10-16T04:18:28.103Z,101094.38
2022-10-16T04:20:55.355Z,101065.84
2022-10-16T04:23:22.159Z,101096.97
2022-10-16T04:25:48.837Z,101062.56
2022-10-16T04:28:17.970Z,101079.75
2022-10-16T04:30:46.783Z,101073.50
2022-10-16T04:33:14.161Z,101089.53
2022-10-16T04:35:40.845Z,101088.69
2022-10-16T04:38:12.433Z,101069.19
2022-10-16T04:40:42.105Z,101074.97
2022-10-16T04:43:09.314Z,101100.09
2022-10-16T04:45:38.164Z,101093.19
2022-10-16T04:48:09.506Z,101087.88
2022-10-16T04:50:38.755Z,101114.78
2022-10-16T04:53:06.520Z,101116.81
2022-10-16T04:55:33.238Z,101127.06
2022-10-16T04:57:59.905Z,101094.34
2022-10-16T05:00:28.922Z,101108.00
2022-10-16T05:02:58.541Z,101136.88
2022-10-16T05:05:26.067Z,101145.78
2022-10-16T05:07:52.721Z,101118.09
2022-10-16T05:10:19.595Z,101138.91
2022-10-16T05:12:46.282Z,101139.22
2022-10-16T05:15:13.030Z,101134.91
2022-10-16T05:17:42.536Z,101138.09
2022-10-16T05:20:12.143Z,101144.59
2022-10-16T05:25:21.688Z,101160.59
2022-10-16T05:27:49.952Z,101172.25
2022-10-16T05:30:17.814Z,101176.72
2022-10-16T05:32:51.591Z,101148.59
2022-10-16T05:35:21.761Z,101178.72
2022-10-16T05:37:49.174Z,101172.69
2022-10-16T05:40:16.535Z,101192.00
2022-10-16T05:42:43.440Z,101190.25
2022-10-16T05:45:13.299Z,101188.84
2022-10-16T05:47:40.534Z,101198.66
2022-10-16T05:50:07.966Z,101187.28
2022-10-16T05:52:37.196Z,101221.38
2022-10-16T05:55:05.306Z,101218.63
2022-10-16T05:57:32.215Z,101193.63
2022-10-16T06:00:03.392Z,101220.66
2022-10-16T06:02:32.557Z,101237.91
2022-10-16T06:05:01.651Z,101230.47
2022-10-16T06:07:29.369Z,101220.56
2022-10-16T06:09:56.219Z,101241.81
2022-10-16T06:12:23.025Z,101243.41
2022-10-16T06:14:51.928Z,101252.44
2022-10-16T06:17:19.005Z,101224.84
2022-10-16T06:19:47.861Z,101259.66
2022-10-16T06:22:14.504Z,101263.22
2022-10-16T06:24:43.457Z,101257.63
2022-10-16T06:27:10.166Z,101227.13
2022-10-16T06:29:36.902Z,101234.03
2022-10-16T06:32:03.702Z,101256.31
2022-10-16T06:34:30.498Z,101266.34
2022-10-16T06:36:57.099Z,101285.44
2022-10-16T06:39:23.827Z,101279.78
2022-10-16T06:41:50.760Z,101279.28
2022-10-16T06:44:19.725Z,101277.06
2022-10-16T06:46:51.234Z,101277.84
2022-10-16T06:49:22.591Z,101267.06
2022-10-16T06:51:51.788Z,101262.38
2022-10-16T06:54:18.937Z,101203.78
2022-10-16T06:56:45.779Z,101295.75
2022-10-16T06:59:12.539Z,101294.94
2022-10-16T07:01:39.175Z,101300.22
2022-10-16T07:04:05.909Z,101303.75
2022-10-16T07:06:35.053Z,101311.16
2022-10-16T07:09:06.674Z,101312.03
2022-10-16T07:11:34.134Z,101316.63
2022-10-16T07:14:01.622Z,101301.16
2022-10-16T07:16:30.812Z,101324.41
2022-10-16T07:19:00.890Z,101327.56
2022-10-16T07:21:30.979Z,101336.47
2022-10-16T07:24:02.196Z,101334.47
2022-10-16T07:26:32.195Z,101343.34
2022-10-16T07:28:59.370Z,101352.28
2022-10-16T07:31:26.673Z,101329.03
2022-10-16T07:33:53.897Z,101343.13
2022-10-16T07:36:21.716Z,101362.84
2022-10-16T07:38:48.731Z,101351.63
2022-10-16T07:41:17.821Z,101366.88
2022-10-16T07:43:49.448Z,101374.31
2022-10-16T07:46:17.653Z,101380.03
2022-10-16T07:48:47.934Z,101378.69
2022-10-16T07:51:17.550Z,101360.75
2022-10-16T07:53:44.359Z,101378.44
2022-10-16T07:56:12.755Z,101381.34
2022-10-16T07:58:39.917Z,101384.25
2022-10-16T08:01:12.627Z,101363.53
2022-10-16T08:03:39.720Z,101388.44
2022-10-16T08:06:06.568Z,101401.16
2022-10-16T08:08:33.318Z,101379.22
2022-10-16T08:11:04.813Z,101393.94
2022-10-16T08:13:32.727Z,101415.31
2022-10-16T08:15:59.575Z,101394.78
2022-10-16T08:18:26.464Z,101413.97
2022-10-16T08:21:01.162Z,101413.97
2022-10-16T08:23:28.647Z,101394.91
2022-10-16T08:25:58.633Z,101428.53
2022-10-16T08:28:25.779Z,101396.88
2022-10-16T08:30:52.448Z,101436.53
2022-10-16T08:33:19.276Z,101416.91
2022-10-16T08:35:55.406Z,101422.13
2022-10-16T08:38:22.651Z,101423.34
2022-10-16T08:40:52.687Z,101458.72
2022-10-16T08:43:38.773Z,101458.44
2022-10-16T08:46:36.362Z,101460.59
2022-10-16T08:49:03.927Z,101434.66
2022-10-16T08:51:33.273Z,101473.38
2022-10-16T08:54:06.690Z,101480.75
2022-10-16T08:56:34.664Z,101472.84
2022-10-16T08:59:03.240Z,101480.94
2022-10-16T09:01:42.942Z,101481.81
2022-10-16T09:04:42.264Z,101476.28
2022-10-16T09:07:29.101Z,101451.38
2022-10-16T09:10:14.416Z,101484.41
2022-10-16T09:12:51.605Z,101466.66
2022-10-16T09:15:38.960Z,101484.88
2022-10-16T09:18:30.053Z,101492.38
2022-10-16T09:21:09.666Z,101492.47
2022-10-16T09:23:39.100Z,101473.13
2022-10-16T09:26:10.614Z,101495.03
2022-10-16T09:28:37.742Z,101470.78
2022-10-16T09:31:04.628Z,101484.72
2022-10-16T09:33:37.816Z,101503.72
2022-10-16T09:36:06.614Z,101501.50
2022-10-16T09:38:37.826Z,101506.28
2022-10-16T09:41:23.078Z,101502.81
2022-10-16T09:43:57.882Z,101498.47
2022-10-16T09:46:35.706Z,101514.75
2022-10-16T09:49:20.318Z,101513.03
2022-10-16T09:51:49.701Z,101514.84
2022-10-16T09:54:19.614Z,101500.59
2022-10-16T09:56:53.502Z,101519.91
2022-10-16T09:59:25.295Z,101516.09
2022-10-16T10:01:54.109Z,101506.28
2022-10-16T10:04:22.285Z,101524.75
2022-10-16T10:06:54.049Z,101500.34
2022-10-16T10:09:22.569Z,101503.22
2022-10-16T10:11:57.963Z,101495.59
2022-10-16T10:14:38.821Z,101516.78
2022-10-16T10:17:16.634Z,101526.19
2022-10-16T10:19:52.718Z,101526.19
2022-10-16T10:22:54.215Z,101535.94
2022-10-16T10:25:27.614Z,101511.25
2022-10-16T10:28:23.840Z,101531.84
2022-10-16T10:31:15.530Z,101546.78
2022-10-16T10:34:12.389Z,101551.00
2022-10-16T10:36:41.231Z,101555.75
2022-10-16T10:39:19.564Z,101543.59
2022-10-16T10:42:23.134Z,101522.66
2022-10-16T10:44:55.289Z,101553.53
2022-10-16T10:47:28.075Z,101553.63
2022-10-16T10:50:04.558Z,101552.22
2022-10-16T10:52:47.902Z,101529.94
2022-10-16T10:55:38.766Z,101558.06
2022-10-16T10:58:22.319Z,101560.75
2022-10-16T11:01:01.247Z,101527.03
2022-10-16T11:03:36.876Z,101561.56
2022-10-16T11:06:13.676Z,101545.47
2022-10-16T11:08:57.651Z,101525.41
2022-10-16T11:11:36.255Z,101563.75
2022-10-16T11:14:18.395Z,101540.56
2022-10-16T11:17:06.605Z,101568.09
2022-10-16T11:19:57.783Z,101558.06
2022-10-16T11:22:35.181Z,101552.41
2022-10-16T11:25:14.129Z,101566.28
2022-10-16T11:27:46.008Z,101563.03
2022-10-16T11:30:34.920Z,101543.31
2022-10-16T11:33:13.468Z,101559.31
2022-10-16T11:35:50.665Z,101553.84
2022-10-16T11:38:34.303Z,101557.03
2022-10-16T11:41:11.280Z,101580.44
2022-10-16T11:43:47.410Z,101577.44
2022-10-16T11:46:25.305Z,101578.91
2022-10-16T11:49:10.029Z,101580.53
2022-10-16T11:51:42.099Z,101587.81
2022-10-16T11:54:36.624Z,101585.84
2022-10-16T11:57:13.845Z,101552.41
2022-10-16T11:59:52.368Z,101586.03
2022-10-16T12:02:46.859Z,101565.47
2022-10-16T12:05:22.566Z,101579.78
2022-10-16T12:08:03.465Z,101582.41
2022-10-16T12:13:33.130Z,101590.81
2022-10-16T12:16:10.179Z,101561.69
2022-10-16T12:18:36.877Z,101594.50
2022-10-16T12:21:08.405Z,101591.38
2022-10-16T12:23:40.221Z,101583.25
2022-10-16T12:26:09.552Z,101581.72
2022-10-16T12:28:37.466Z,101591.97
2022-10-16T12:31:11.138Z,101593.28
2022-10-16T12:33:41.279Z,101589.44
2022-10-16T12:36:27.472Z,101597.16
2022-10-16T12:38:55.202Z,101582.63
2022-10-16T12:41:29.408Z,101570.22
2022-10-16T12:43:56.818Z,101592.13
2022-10-16T12:46:43.739Z,101590.16
2022-10-16T12:49:13.494Z,101586.03
2022-10-16T12:51:41.276Z,101577.44
2022-10-16T12:54:22.648Z,101594.50
2022-10-16T12:57:28.189Z,101597.31
2022-10-16T13:00:26.709Z,101590.94
2022-10-16T13:03:01.061Z,101570.38
2022-10-16T13:05:41.650Z,101599.69
2022-10-16T13:08:14.158Z,101591.81
2022-10-16T13:11:19.469Z,101592.03
2022-10-16T13:14:13.432Z,101589.69
2022-10-16T13:16:52.413Z,101600.78
2022-10-16T13:19:37.208Z,101608.25
2022-10-16T13:22:18.815Z,101604.44
2022-10-16T13:25:21.580Z,101593.72
2022-10-16T13:28:05.378Z,101604.44
2022-10-16T13:30:38.474Z,101584.69
2022-10-16T13:33:11.219Z,101602.25
2022-10-16T13:35:38.135Z,101603.69
2022-10-16T13:38:28.889Z,101603.91
2022-10-16T13:41:15.187Z,101587.81
2022-10-16T13:43:51.878Z,101611.97
2022-10-16T13:46:24.061Z,101586.88
2022-10-16T13:49:28.885Z,101621.88
2022-10-16T13:51:57.902Z,101599.34
2022-10-16T13:54:26.711Z,101610.22
2022-10-16T13:57:03.238Z,101612.09
2022-10-16T13:59:38.545Z,101605.00
2022-10-16T14:02:22.712Z,101612.00
2022-10-16T14:04:50.651Z,101608.31
2022-10-16T14:07:29.312Z,101587.97
2022-10-16T14:09:57.099Z,101611.59
2022-10-16T14:12:28.263Z,101589.34
2022-10-16T14:15:00.236Z,101602.22
2022-10-16T14:17:36.926Z,101619.66
2022-10-16T14:20:07.247Z,101592.31
2022-10-16T14:22:37.033Z,101590.78
2022-10-16T14:25:22.876Z,101612.75
2022-10-16T14:28:00.305Z,101613.31
2022-10-16T14:30:28.398Z,101621.75
2022-10-16T14:33:00.920Z,101623.44
2022-10-16T14:35:30.507Z,101622.38
2022-10-16T14:37:59.527Z,101615.50
2022-10-16T14:40:33.534Z,101616.66
2022-10-16T14:43:04.096Z,101608.53
2022-10-16T14:45:36.683Z,101600.00
2022-10-16T14:48:17.233Z,101608.56
2022-10-16T14:50:46.455Z,101607.50
2022-10-16T14:53:13.721Z,101613.72
2022-10-16T14:55:41.888Z,101598.13
2022-10-16T14:58:22.842Z,101607.03
2022-10-16T15:00:50.702Z,101593.53
2022-10-16T15:03:17.908Z,101591.41
2022-10-16T15:05:44.722Z,101590.69
2022-10-16T15:08:11.563Z,101600.28
2022-10-16T15:10:44.015Z,101594.66
2022-10-16T15:13:15.419Z,101596.34
2022-10-16T15:15:50.302Z,101601.81
2022-10-16T15:18:21.363Z,101600.94
2022-10-16T15:20:52.517Z,101593.22
2022-10-16T15:23:21.697Z,101582.94
2022-10-16T15:25:54.311Z,101593.13
2022-10-16T15:28:23.220Z,101584.69
2022-10-16T15:30:54.528Z,101604.81
2022-10-16T15:33:28.509Z,101604.53
2022-10-16T15:35:56.176Z,101584.75
2022-10-16T15:38:23.970Z,101589.34
2022-10-16T15:40:51.014Z,101607.13
2022-10-16T15:43:18.133Z,101612.19
2022-10-16T15:45:45.038Z,101580.25
2022-10-16T15:48:15.908Z,101613.56
2022-10-16T15:50:45.574Z,101583.06
2022-10-16T15:53:12.165Z,101590.59
2022-10-16T15:55:39.016Z,101596.38
2022-10-16T15:58:06.454Z,101606.06
2022-10-16T16:00:33.125Z,101601.94
2022-10-16T16:02:59.969Z,101582.50
2022-10-16T16:05:27.088Z,101609.41
2022-10-16T16:07:53.763Z,101605.84
2022-10-16T16:10:22.859Z,101623.34
2022-10-16T16:12:53.083Z,101576.16
2022-10-16T16:15:22.092Z,101599.66
2022-10-16T16:17:49.635Z,101597.63
2022-10-16T16:20:16.578Z,101590.97
2022-10-16T16:22:43.451Z,101607.06
2022-10-16T16:25:10.455Z,101602.97
2022-10-16T16:27:39.371Z,101607.53
2022-10-16T16:30:08.484Z,101617.06
2022-10-16T16:32:37.628Z,101612.94
2022-10-16T16:35:05.677Z,101613.56
2022-10-16T16:37:35.198Z,101614.63
2022-10-16T16:40:01.954Z,101612.72
2022-10-16T16:42:29.257Z,101584.91
2022-10-16T16:44:56.141Z,101585.63
2022-10-16T16:47:24.148Z,101598.28
2022-10-16T16:49:51.039Z,101601.91
2022-10-16T16:52:18.265Z,101596.94
2022-10-16T16:54:52.368Z,101610.69
2022-10-16T16:57:20.982Z,101622.47
2022-10-16T16:59:47.880Z,101609.31
2022-10-16T17:02:16.949Z,101629.66
2022-10-16T17:04:43.805Z,101624.84
2022-10-16T17:07:10.485Z,101633.00
2022-10-16T17:09:37.222Z,101637.66
2022-10-16T17:12:06.689Z,101652.34
2022-10-16T17:14:35.541Z,101649.75
2022-10-16T17:17:02.581Z,101647.72
2022-10-16T17:19:29.292Z,101646.88
2022-10-16T17:21:56.190Z,101612.09
2022-10-16T17:24:23.045Z,101609.03
2022-10-16T17:26:50.001Z,101609.38
2022-10-16T17:29:20.607Z,101611.09
2022-10-16T17:31:50.100Z,101635.25
2022-10-16T17:34:16.768Z,101627.81
2022-10-16T17:36:44.263Z,101628.69
2022-10-16T17:39:13.445Z,101633.50
2022-10-16T17:41:40.257Z,101638.53
2022-10-16T17:44:08.035Z,101634.94
2022-10-16T17:46:41.139Z,101634.25
2022-10-16T17:49:09.927Z,101604.28
2022-10-16T17:51:36.841Z,101630.47
2022-10-16T17:54:03.592Z,101627.88
2022-10-16T17:56:33.706Z,101633.56
2022-10-16T17:59:04.791Z,101646.03
2022-10-16T18:01:36.879Z,101651.72
2022-10-16T18:04:09.387Z,101646.38
2022-10-16T18:06:37.680Z,101648.97
2022-10-16T18:09:08.380Z,101635.56
2022-10-16T18:11:35.378Z,101660.19
2022-10-16T18:14:02.608Z,101637.44
2022-10-16T18:16:31.403Z,101688.97
2022-10-16T18:18:59.659Z,101689.66
2022-10-16T18:21:32.223Z,101681.56
2022-10-16T18:24:02.269Z,101697.59
2022-10-16T18:26:29.205Z,101733.78
2022-10-16T18:28:57.858Z,101705.34
2022-10-16T18:31:26.503Z,101723.09
2022-10-16T18:33:54.463Z,101721.19
2022-10-16T18:36:30.891Z,101695.19
2022-10-16T18:38:58.841Z,101722.72
2022-10-16T18:41:26.913Z,101692.41
2022-10-16T18:43:56.905Z,101720.53
2022-10-16T18:46:24.933Z,101711.72
2022-10-16T18:48:54.253Z,101719.81
2022-10-16T18:51:25.102Z,101717.06
2022-10-16T18:53:54.541Z,101711.03
2022-10-16T18:56:23.637Z,101695.34
2022-10-16T18:58:53.484Z,101696.72
2022-10-16T19:01:24.765Z,101678.47
2022-10-16T19:04:05.405Z,101690.91
2022-10-16T19:06:41.366Z,101706.91
2022-10-16T19:09:08.605Z,101704.69
2022-10-16T19:11:37.975Z,101689.84
2022-10-16T19:14:05.954Z,101682.25
2022-10-16T19:16:36.247Z,101679.16
2022-10-16T19:19:05.502Z,101691.25
2022-10-16T19:21:35.729Z,101691.75
2022-10-16T19:24:04.295Z,101710.88
2022-10-16T19:26:33.398Z,101722.75
2022-10-16T19:29:03.894Z,101723.09
2022-10-16T19:31:31.528Z,101721.03
2022-10-16T19:34:00.157Z,101730.53
2022-10-16T19:36:29.551Z,101734.13
2022-10-16T19:39:04.150Z,101699.81
2022-10-16T19:41:36.528Z,101732.94
2022-10-16T19:44:04.962Z,101705.88
2022-10-16T19:46:32.591Z,101700.72
2022-10-16T19:49:08.141Z,101708.47
2022-10-16T19:51:35.305Z,101721.53
2022-10-16T19:54:04.900Z,101711.91
2022-10-16T19:56:33.160Z,101711.06
2022-10-16T19:59:00.696Z,101709.50
2022-10-16T20:01:29.516Z,101695.00
2022-10-16T20:03:57.359Z,101725.84
2022-10-16T20:06:26.558Z,101722.59
2022-10-16T20:08:55.442Z,101716.69
2022-10-16T20:11:25.812Z,101693.06
2022-10-16T20:13:54.575Z,101679.28
2022-10-16T20:16:21.697Z,101711.31
2022-10-16T20:18:50.577Z,101706.00
2022-10-16T20:21:20.217Z,101660.84
2022-10-16T20:23:50.949Z,101695.97
2022-10-16T20:26:20.117Z,101693.56
2022-10-16T20:28:46.994Z,101695.09
2022-10-16T20:31:18.287Z,101678.84
2022-10-16T20:33:45.537Z,101707.97
2022-10-16T20:36:16.159Z,101706.97
2022-10-16T20:38:43.541Z,101710.72
2022-10-16T20:41:15.806Z,101711.59
2022-10-16T20:43:49.247Z,101681.41
2022-10-16T20:46:22.164Z,101676.78
2022-10-16T20:48:55.428Z,101701.44
2022-10-16T20:51:24.940Z,101698.28
2022-10-16T20:54:04.030Z,101688.31
2022-10-16T20:56:35.611Z,101669.53
2022-10-16T20:59:02.463Z,101695.19
2022-10-16T21:01:31.259Z,101685.88
2022-10-16T21:04:01.947Z,101685.00
2022-10-16T21:06:29.842Z,101676.72
2022-10-16T21:09:03.559Z,101681.34
2022-10-16T21:14:01.016Z,101683.75
2022-10-16T21:16:28.464Z,101647.72
2022-10-16T21:18:55.296Z,101680.09
2022-10-16T21:21:25.105Z,101654.53
2022-10-16T21:23:52.477Z,101686.78
2022-10-16T21:26:26.274Z,101682.16
2022-10-16T21:28:58.383Z,101680.75
2022-10-16T21:31:25.242Z,101648.81
2022-10-16T21:33:53.037Z,101674.31
2022-10-16T21:36:29.177Z,101647.56
2022-10-16T21:38:57.057Z,101659.66
2022-10-16T21:41:26.677Z,101672.59
2022-10-16T21:43:54.559Z,101652.91
2022-10-16T21:46:23.723Z,101648.47
2022-10-16T21:48:57.357Z,101653.63
2022-10-16T21:51:33.913Z,101654.13
2022-10-16T21:54:05.431Z,101631.16
2022-10-16T21:56:32.825Z,101650.81
2022-10-16T21:58:59.929Z,101650.06
2022-10-16T22:01:31.093Z,101635.91
2022-10-16T22:04:00.704Z,101652.47
2022-10-16T22:06:28.638Z,101651.06
2022-10-16T22:08:59.880Z,101638.25
2022-10-16T22:11:38.451Z,101651.00
2022-10-16T22:14:09.738Z,101652.72
2022-10-16T22:16:37.302Z,101639.13
2022-10-16T22:19:07.451Z,101639.47
2022-10-16T22:21:39.052Z,101644.25
2022-10-16T22:24:06.566Z,101646.63
2022-10-16T22:26:34.431Z,101611.13
2022-10-16T22:29:01.192Z,101655.19
2022-10-16T22:31:27.987Z,101662.44
2022-10-16T22:33:56.959Z,101658.09
2022-10-16T22:36:24.193Z,101653.63
2022-10-16T22:38:51.162Z,101637.56
2022-10-16T22:41:17.759Z,101654.25
2022-10-16T22:43:49.096Z,101649.81
2022-10-16T22:46:22.367Z,101650.66
2022-10-16T22:48:49.392Z,101654.78
2022-10-16T22:51:17.349Z,101645.41
2022-10-16T22:53:47.811Z,101656.63
2022-10-16T22:56:16.232Z,101648.00
2022-10-16T22:58:43.094Z,101656.41
2022-10-16T23:01:20.581Z,101651.22
2022-10-16T23:03:47.219Z,101615.94
2022-10-16T23:06:14.781Z,101625.06
2022-10-16T23:08:43.839Z,101630.06
2022-10-16T23:11:13.110Z,101620.78
2022-10-16T23:13:45.655Z,101625.91
2022-10-16T23:16:15.197Z,101605.19
2022-10-16T23:18:43.096Z,101623.31
2022-10-16T23:21:12.799Z,101617.22
2022-10-16T23:23:42.989Z,101619.34
2022-10-16T23:26:17.541Z,101629.28
2022-10-16T23:28:47.130Z,101630.63
2022-10-16T23:31:15.467Z,101622.72
2022-10-16T23:33:43.862Z,101631.63
2022-10-16T23:36:14.369Z,101629.75
2022-10-16T23:38:41.347Z,101627.00
2022-10-16T23:41:07.977Z,101618.53
2022-10-16T23:43:34.590Z,101618.22
2022-10-16T23:46:02.177Z,101607.97
2022-10-16T23:48:28.940Z,101612.31
2022-10-16T23:50:55.842Z,101572.84
2022-10-16T23:53:22.518Z,101603.78
2022-10-16T23:55:49.132Z,101587.53
2022-10-16T23:58:16.310Z,101572.00
